createdAt,value
2018-11-07T00:00:25.154Z,12.45
2018-11-07T00:01:25.136Z,12.40
2018-11-07T00:02:25.126Z,12.29
2018-11-07T00:03:25.115Z,12.40
2018-11-07T00:04:25.107Z,12.34
2018-11-07T00:05:25.092Z,12.29
2018-11-07T00:06:25.084Z,12.29
2018-11-07T00:07:25.069Z,12.28
2018-11-07T00:08:25.101Z,12.32
2018-11-07T00:09:25.048Z,12.29
2018-11-07T00:10:25.038Z,12.28
2018-11-07T00:11:25.026Z,12.31
2018-11-07T00:12:25.013Z,12.31
2018-11-07T00:13:25.004Z,12.29
2018-11-07T00:14:24.993Z,12.31
2018-11-07T00:15:24.982Z,12.31
2018-11-07T00:16:24.975Z,12.34
2018-11-07T00:17:24.956Z,12.32
2018-11-07T00:18:24.947Z,12.32
2018-11-07T00:19:24.963Z,12.22
2018-11-07T00:20:24.923Z,12.21
2018-11-07T00:21:24.920Z,12.25
2018-11-07T00:22:24.905Z,12.32
2018-11-07T00:23:24.908Z,12.21
2018-11-07T00:24:24.880Z,12.17
2018-11-07T00:25:24.875Z,12.17
2018-11-07T00:26:24.928Z,12.20
2018-11-07T00:27:24.844Z,12.20
2018-11-07T00:28:24.836Z,12.21
2018-11-07T00:29:24.829Z,12.14
2018-11-07T00:30:24.812Z,12.12
2018-11-07T00:31:24.800Z,12.13
2018-11-07T00:32:24.791Z,12.16
2018-11-07T00:33:24.780Z,12.21
2018-11-07T00:34:24.768Z,12.13
2018-11-07T00:35:24.767Z,12.14
2018-11-07T00:36:24.744Z,12.10
2018-11-07T00:37:24.733Z,12.12
2018-11-07T00:38:24.724Z,12.21
2018-11-07T00:39:24.710Z,12.07
2018-11-07T00:40:24.700Z,12.07
2018-11-07T00:41:24.687Z,12.10
2018-11-07T00:42:24.736Z,12.07
2018-11-07T00:43:24.666Z,12.06
2018-11-07T00:44:24.657Z,11.98
2018-11-07T00:45:24.643Z,11.96
2018-11-07T00:46:24.634Z,12.03
2018-11-07T00:47:24.625Z,11.96
2018-11-07T00:48:24.609Z,12.13
2018-11-07T00:49:24.598Z,12.04
2018-11-07T00:50:24.588Z,12.07
2018-11-07T00:51:24.577Z,11.99
2018-11-07T00:52:24.567Z,12.13
2018-11-07T00:53:24.555Z,12.07
2018-11-07T00:54:24.547Z,12.12
2018-11-07T00:55:24.540Z,12.03
2018-11-07T00:56:24.522Z,11.98
2018-11-07T00:57:24.519Z,11.95
2018-11-07T00:58:24.501Z,11.99
2018-11-07T00:59:24.490Z,11.88
2018-11-07T01:00:24.478Z,11.98
2018-11-07T01:01:24.466Z,11.95
2018-11-07T01:02:24.462Z,11.95
2018-11-07T01:03:24.444Z,11.88
2018-11-07T01:04:24.437Z,11.89
2018-11-07T01:05:24.429Z,11.88
2018-11-07T01:06:24.412Z,11.85
2018-11-07T01:07:24.401Z,11.99
2018-11-07T01:08:24.389Z,11.89
2018-11-07T01:09:24.444Z,11.89
2018-11-07T01:10:24.366Z,11.92
2018-11-07T01:11:24.358Z,11.89
2018-11-07T01:12:24.352Z,11.91
2018-11-07T01:13:24.334Z,11.84
2018-11-07T01:14:24.326Z,11.88
2018-11-07T01:15:24.313Z,11.85
2018-11-07T01:16:24.311Z,11.88
2018-11-07T01:17:24.293Z,11.88
2018-11-07T01:18:24.278Z,11.91
2018-11-07T01:19:24.270Z,11.88
2018-11-07T01:20:24.282Z,11.89
2018-11-07T01:21:24.247Z,11.85
2018-11-07T01:22:24.369Z,11.88
2018-11-07T01:23:24.246Z,11.89
2018-11-07T01:24:24.243Z,11.87
2018-11-07T01:25:24.246Z,11.87
2018-11-07T01:26:24.196Z,11.87
2018-11-07T01:27:24.202Z,11.87
2018-11-07T01:28:24.276Z,11.85
2018-11-07T01:29:24.195Z,11.76
2018-11-07T01:30:24.201Z,11.77
2018-11-07T01:31:24.139Z,11.66
2018-11-07T01:32:24.122Z,11.70
2018-11-07T01:33:24.112Z,11.74
2018-11-07T01:34:24.104Z,11.70
2018-11-07T01:35:24.094Z,11.80
2018-11-07T01:36:24.077Z,11.67
2018-11-07T01:37:24.067Z,11.77
2018-11-07T01:38:24.057Z,11.69
2018-11-07T01:39:24.045Z,11.73
2018-11-07T01:40:24.040Z,11.64
2018-11-07T01:41:24.030Z,11.69
2018-11-07T01:42:24.016Z,11.61
2018-11-07T01:43:24.001Z,11.62
2018-11-07T01:44:23.991Z,11.67
2018-11-07T01:45:23.983Z,11.67
2018-11-07T01:46:23.974Z,11.71
2018-11-07T01:47:23.961Z,11.69
2018-11-07T01:48:23.955Z,11.62
2018-11-07T01:49:23.935Z,11.69
2018-11-07T01:50:23.923Z,11.71
2018-11-07T01:51:23.917Z,11.66
2018-11-07T01:52:23.902Z,11.66
2018-11-07T01:53:23.890Z,11.66
2018-11-07T01:54:23.879Z,11.58
2018-11-07T01:55:23.876Z,11.61
2018-11-07T01:56:23.856Z,11.64
2018-11-07T01:57:23.851Z,11.62
2018-11-07T01:58:23.843Z,11.58
2018-11-07T01:59:23.825Z,11.58
2018-11-07T02:00:23.813Z,11.55
2018-11-07T02:01:23.803Z,11.48
2018-11-07T02:02:23.791Z,11.56
2018-11-07T02:03:23.781Z,11.59
2018-11-07T02:04:23.769Z,11.62
2018-11-07T02:05:23.758Z,11.62
2018-11-07T02:06:23.752Z,11.59
2018-11-07T02:07:23.735Z,11.67
2018-11-07T02:08:23.725Z,11.56
2018-11-07T02:09:23.715Z,11.49
2018-11-07T02:10:23.706Z,11.52
2018-11-07T02:11:23.693Z,11.49
2018-11-07T02:12:23.683Z,11.61
2018-11-07T02:13:23.672Z,11.54
2018-11-07T02:14:23.663Z,11.52
2018-11-07T02:15:23.650Z,11.51
2018-11-07T02:16:23.640Z,11.64
2018-11-07T02:17:23.623Z,11.56
2018-11-07T02:18:23.613Z,11.52
2018-11-07T02:19:23.603Z,11.51
2018-11-07T02:20:23.591Z,11.48
2018-11-07T02:21:23.580Z,11.45
2018-11-07T02:22:23.572Z,11.48
2018-11-07T02:23:23.558Z,11.59
2018-11-07T02:24:23.547Z,11.52
2018-11-07T02:25:23.536Z,11.52
2018-11-07T02:26:23.587Z,11.52
2018-11-07T02:27:23.514Z,11.54
2018-11-07T02:28:23.505Z,11.51
2018-11-07T02:29:23.492Z,11.46
2018-11-07T02:30:23.481Z,11.45
2018-11-07T02:31:23.473Z,11.45
2018-11-07T02:32:23.463Z,11.45
2018-11-07T02:33:23.450Z,11.49
2018-11-07T02:34:23.437Z,11.46
2018-11-07T02:35:23.426Z,11.48
2018-11-07T02:36:23.414Z,11.41
2018-11-07T02:37:23.407Z,11.46
2018-11-07T02:38:23.393Z,11.43
2018-11-07T02:39:23.382Z,11.56
2018-11-07T02:40:23.371Z,11.52
2018-11-07T02:41:23.359Z,11.51
2018-11-07T02:42:23.354Z,11.51
2018-11-07T02:43:23.336Z,11.54
2018-11-07T02:44:23.329Z,11.49
2018-11-07T02:45:23.317Z,11.40
2018-11-07T02:46:23.304Z,11.38
2018-11-07T02:47:23.293Z,11.46
2018-11-07T02:48:23.282Z,11.38
2018-11-07T02:49:23.271Z,11.37
2018-11-07T02:50:23.260Z,11.41
2018-11-07T02:51:23.248Z,11.38
2018-11-07T02:52:23.239Z,11.38
2018-11-07T02:53:23.252Z,11.43
2018-11-07T02:54:23.245Z,11.36
2018-11-07T02:55:23.205Z,11.34
2018-11-07T02:56:23.198Z,11.31
2018-11-07T02:57:23.182Z,11.31
2018-11-07T02:58:23.175Z,11.45
2018-11-07T02:59:23.160Z,11.37
2018-11-07T03:00:23.149Z,11.30
2018-11-07T03:01:23.367Z,11.30
2018-11-07T03:02:23.128Z,11.30
2018-11-07T03:03:23.117Z,11.27
2018-11-07T03:04:23.105Z,11.18
2018-11-07T03:05:23.097Z,11.12
2018-11-07T03:06:23.085Z,11.12
2018-11-07T03:07:23.071Z,11.11
2018-11-07T03:08:23.063Z,11.17
2018-11-07T03:09:23.056Z,11.18
2018-11-07T03:10:23.071Z,11.18
2018-11-07T03:11:23.035Z,11.03
2018-11-07T03:12:23.017Z,11.07
2018-11-07T03:13:23.024Z,11.12
2018-11-07T03:14:23.005Z,11.14
2018-11-07T03:15:22.992Z,11.17
2018-11-07T03:16:22.975Z,11.10
2018-11-07T03:17:22.968Z,11.10
2018-11-07T03:18:22.958Z,11.10
2018-11-07T03:19:22.945Z,11.07
2018-11-07T03:20:22.930Z,11.07
2018-11-07T03:21:22.917Z,11.12
2018-11-07T03:22:22.907Z,11.07
2018-11-07T03:23:22.897Z,11.00
2018-11-07T03:24:22.885Z,11.04
2018-11-07T03:25:22.873Z,11.03
2018-11-07T03:26:22.863Z,11.00
2018-11-07T03:27:22.850Z,10.97
2018-11-07T03:28:22.865Z,10.97
2018-11-07T03:29:22.829Z,10.94
2018-11-07T03:30:22.818Z,10.99
2018-11-07T03:31:22.808Z,10.94
2018-11-07T03:32:22.798Z,10.97
2018-11-07T03:33:22.786Z,10.94
2018-11-07T03:34:22.778Z,10.86
2018-11-07T03:35:22.763Z,10.90
2018-11-07T03:36:22.756Z,10.94
2018-11-07T03:37:22.741Z,10.93
2018-11-07T03:38:22.737Z,10.99
2018-11-07T03:39:22.718Z,10.92
2018-11-07T03:40:22.715Z,10.90
2018-11-07T03:41:22.696Z,10.89
2018-11-07T03:42:22.691Z,10.94
2018-11-07T03:43:22.674Z,10.92
2018-11-07T03:44:22.664Z,10.86
2018-11-07T03:45:22.654Z,10.85
2018-11-07T03:46:22.641Z,10.78
2018-11-07T03:47:22.630Z,10.85
2018-11-07T03:48:22.619Z,10.89
2018-11-07T03:49:22.616Z,10.75
2018-11-07T03:50:22.601Z,10.74
2018-11-07T03:51:22.586Z,10.75
2018-11-07T03:52:22.579Z,10.78
2018-11-07T03:53:22.709Z,10.79
2018-11-07T03:54:22.561Z,10.79
2018-11-07T03:55:22.541Z,10.78
2018-11-07T03:56:22.536Z,10.82
2018-11-07T03:57:22.519Z,10.79
2018-11-07T03:58:22.507Z,10.77
2018-11-07T03:59:22.509Z,10.82
2018-11-07T04:00:22.485Z,10.66
2018-11-07T04:01:22.475Z,10.74
2018-11-07T04:02:22.464Z,10.75
2018-11-07T04:03:22.452Z,10.77
2018-11-07T04:04:22.448Z,10.81
2018-11-07T04:05:22.431Z,10.69
2018-11-07T04:06:22.433Z,10.78
2018-11-07T04:07:22.411Z,10.77
2018-11-07T04:08:22.398Z,10.79
2018-11-07T04:09:22.387Z,10.63
2018-11-07T04:10:22.381Z,10.66
2018-11-07T04:11:22.367Z,10.66
2018-11-07T04:12:22.353Z,10.67
2018-11-07T04:13:22.343Z,10.57
2018-11-07T04:14:22.332Z,10.64
2018-11-07T04:15:22.326Z,10.61
2018-11-07T04:16:22.316Z,10.60
2018-11-07T04:17:22.298Z,10.64
2018-11-07T04:18:22.294Z,10.61
2018-11-07T04:19:22.281Z,10.54
2018-11-07T04:20:22.268Z,10.61
2018-11-07T04:21:22.252Z,10.59
2018-11-07T04:22:22.247Z,10.59
2018-11-07T04:23:22.237Z,10.57
2018-11-07T04:24:22.218Z,10.57
2018-11-07T04:25:22.208Z,10.59
2018-11-07T04:26:22.193Z,10.54
2018-11-07T04:27:22.185Z,10.56
2018-11-07T04:28:22.172Z,10.53
2018-11-07T04:29:22.168Z,10.49
2018-11-07T04:30:22.148Z,10.46
2018-11-07T04:31:22.141Z,10.51
2018-11-07T04:32:22.128Z,10.45
2018-11-07T04:33:22.120Z,10.45
2018-11-07T04:34:22.107Z,10.56
2018-11-07T04:35:22.091Z,10.51
2018-11-07T04:36:22.079Z,10.46
2018-11-07T04:37:22.072Z,10.48
2018-11-07T04:38:22.063Z,10.45
2018-11-07T04:39:22.049Z,10.42
2018-11-07T04:40:22.034Z,10.41
2018-11-07T04:41:22.047Z,10.39
2018-11-07T04:42:22.016Z,10.35
2018-11-07T04:43:22.008Z,10.34
2018-11-07T04:44:21.989Z,10.28
2018-11-07T04:45:21.980Z,10.41
2018-11-07T04:46:21.969Z,10.28
2018-11-07T04:47:21.956Z,10.31
2018-11-07T04:48:21.947Z,10.23
2018-11-07T04:49:21.934Z,10.31
2018-11-07T04:50:21.922Z,10.35
2018-11-07T04:51:21.916Z,10.36
2018-11-07T04:52:21.904Z,10.23
2018-11-07T04:53:21.952Z,10.28
2018-11-07T04:54:21.875Z,10.35
2018-11-07T04:55:21.863Z,10.26
2018-11-07T04:56:21.852Z,10.30
2018-11-07T04:57:21.842Z,10.39
2018-11-07T04:58:21.832Z,10.28
2018-11-07T04:59:21.820Z,10.31
2018-11-07T05:00:21.910Z,10.30
2018-11-07T05:01:21.809Z,10.26
2018-11-07T05:02:21.784Z,10.27
2018-11-07T05:03:21.778Z,10.24
2018-11-07T05:04:21.767Z,10.24
2018-11-07T05:05:21.756Z,10.23
2018-11-07T05:06:21.751Z,10.34
2018-11-07T05:07:21.727Z,10.27
2018-11-07T05:08:21.743Z,10.20
2018-11-07T05:09:21.787Z,10.35
2018-11-07T05:10:21.692Z,10.24
2018-11-07T05:11:21.684Z,10.30
2018-11-07T05:12:21.671Z,10.31
2018-11-07T05:13:21.668Z,10.31
2018-11-07T05:14:21.652Z,10.20
2018-11-07T05:15:21.638Z,10.20
2018-11-07T05:16:21.626Z,10.21
2018-11-07T05:17:21.619Z,10.26
2018-11-07T05:18:21.603Z,10.21
2018-11-07T05:19:21.592Z,10.24
2018-11-07T05:20:21.583Z,10.17
2018-11-07T05:21:21.569Z,10.18
2018-11-07T05:22:21.558Z,10.16
2018-11-07T05:23:21.553Z,10.16
2018-11-07T05:24:21.536Z,10.24
2018-11-07T05:25:21.522Z,10.16
2018-11-07T05:26:21.651Z,10.12
2018-11-07T05:27:21.499Z,10.08
2018-11-07T05:28:21.496Z,10.08
2018-11-07T05:29:21.476Z,10.10
2018-11-07T05:30:21.471Z,10.09
2018-11-07T05:31:21.454Z,10.12
2018-11-07T05:32:21.443Z,10.17
2018-11-07T05:33:21.431Z,10.16
2018-11-07T05:34:21.419Z,10.10
2018-11-07T05:35:21.408Z,10.08
2018-11-07T05:36:21.394Z,10.08
2018-11-07T05:37:21.384Z,10.09
2018-11-07T05:38:21.390Z,10.08
2018-11-07T05:39:21.362Z,10.09
2018-11-07T05:40:21.354Z,10.09
2018-11-07T05:41:21.424Z,9.99
2018-11-07T05:42:21.331Z,10.05
2018-11-07T05:43:21.314Z,9.99
2018-11-07T05:44:21.302Z,10.05
2018-11-07T05:45:21.289Z,9.94
2018-11-07T05:46:21.281Z,9.93
2018-11-07T05:47:21.271Z,10.08
2018-11-07T05:48:21.267Z,10.02
2018-11-07T05:49:21.243Z,10.05
2018-11-07T05:50:21.239Z,9.98
2018-11-07T05:51:21.220Z,9.99
2018-11-07T05:52:21.209Z,10.05
2018-11-07T05:53:21.205Z,10.03
2018-11-07T05:54:21.190Z,10.01
2018-11-07T05:55:21.175Z,10.05
2018-11-07T05:56:21.165Z,10.05
2018-11-07T05:57:21.152Z,10.05
2018-11-07T05:58:21.142Z,10.03
2018-11-07T05:59:21.131Z,10.10
2018-11-07T06:00:21.117Z,10.01
2018-11-07T06:01:21.105Z,10.03
2018-11-07T06:02:21.094Z,9.98
2018-11-07T06:03:21.081Z,9.96
2018-11-07T06:04:21.070Z,9.99
2018-11-07T06:05:21.064Z,9.99
2018-11-07T06:06:21.056Z,10.06
2018-11-07T06:07:21.036Z,10.02
2018-11-07T06:08:21.025Z,10.01
2018-11-07T06:09:21.015Z,9.93
2018-11-07T06:10:21.009Z,9.88
2018-11-07T06:11:20.993Z,9.94
2018-11-07T06:12:20.979Z,9.94
2018-11-07T06:13:20.968Z,9.93
2018-11-07T06:14:20.964Z,9.84
2018-11-07T06:15:20.944Z,9.88
2018-11-07T06:16:20.990Z,9.85
2018-11-07T06:17:20.924Z,9.84
2018-11-07T06:18:20.910Z,9.85
2018-11-07T06:19:20.902Z,9.85
2018-11-07T06:20:20.886Z,9.84
2018-11-07T06:21:20.879Z,9.87
2018-11-07T06:22:20.867Z,9.88
2018-11-07T06:23:20.862Z,9.85
2018-11-07T06:24:20.909Z,9.81
2018-11-07T06:25:20.829Z,9.88
2018-11-07T06:26:20.818Z,9.88
2018-11-07T06:27:20.815Z,9.88
2018-11-07T06:28:20.800Z,9.87
2018-11-07T06:29:20.788Z,9.91
2018-11-07T06:30:20.776Z,9.94
2018-11-07T06:31:20.761Z,9.91
2018-11-07T06:32:20.747Z,9.88
2018-11-07T06:33:20.739Z,9.81
2018-11-07T06:34:20.734Z,9.90
2018-11-07T06:35:20.713Z,9.94
2018-11-07T06:36:20.703Z,10.02
2018-11-07T06:37:20.694Z,9.98
2018-11-07T06:38:20.685Z,9.94
2018-11-07T06:39:20.668Z,9.99
2018-11-07T06:40:20.656Z,10.09
2018-11-07T06:41:20.650Z,10.03
2018-11-07T06:42:20.636Z,10.08
2018-11-07T06:43:20.627Z,10.12
2018-11-07T06:44:20.626Z,10.17
2018-11-07T06:45:20.601Z,10.16
2018-11-07T06:46:20.586Z,10.06
2018-11-07T06:47:20.581Z,10.05
2018-11-07T06:48:20.563Z,10.03
2018-11-07T06:49:20.550Z,10.09
2018-11-07T06:50:20.543Z,10.09
2018-11-07T06:51:20.529Z,10.12
2018-11-07T06:52:20.517Z,10.23
2018-11-07T06:53:20.505Z,10.16
2018-11-07T06:54:20.498Z,10.23
2018-11-07T06:55:20.520Z,10.17
2018-11-07T06:56:20.484Z,10.24
2018-11-07T06:57:20.462Z,10.26
2018-11-07T06:58:20.447Z,10.26
2018-11-07T06:59:20.435Z,10.36
2018-11-07T07:00:20.425Z,10.36
2018-11-07T07:01:20.491Z,10.27
2018-11-07T07:02:20.404Z,10.41
2018-11-07T07:03:20.388Z,10.42
2018-11-07T07:04:20.380Z,10.51
2018-11-07T07:05:20.436Z,10.49
2018-11-07T07:06:20.387Z,10.43
2018-11-07T07:07:20.388Z,10.54
2018-11-07T07:08:20.335Z,10.51
2018-11-07T07:09:20.333Z,10.60
2018-11-07T07:10:20.336Z,10.69
2018-11-07T07:11:20.341Z,10.60
2018-11-07T07:12:20.335Z,10.69
2018-11-07T07:13:20.276Z,10.79
2018-11-07T07:14:20.261Z,10.82
2018-11-07T07:15:20.251Z,10.79
2018-11-07T07:16:20.239Z,10.79
2018-11-07T07:17:20.269Z,10.78
2018-11-07T07:18:20.215Z,10.78
2018-11-07T07:19:20.205Z,10.84
2018-11-07T07:20:20.209Z,10.82
2018-11-07T07:21:49.715Z,10.92
2018-11-07T07:22:49.697Z,10.93
2018-11-07T07:23:49.688Z,10.97
2018-11-07T07:24:49.681Z,11.10
2018-11-07T07:25:49.673Z,11.07
2018-11-07T07:26:49.654Z,11.00
2018-11-07T07:27:49.644Z,11.04
2018-11-07T07:28:49.630Z,11.15
2018-11-07T07:29:49.695Z,11.14
2018-11-07T07:30:49.608Z,11.28
2018-11-07T07:31:49.596Z,11.28
2018-11-07T07:32:49.612Z,11.36
2018-11-07T07:33:49.689Z,11.38
2018-11-07T07:34:49.565Z,11.37
2018-11-07T07:35:49.552Z,11.40
2018-11-07T07:36:49.543Z,11.46
2018-11-07T07:37:49.528Z,11.52
2018-11-07T07:38:49.518Z,11.61
2018-11-07T07:39:49.510Z,11.64
2018-11-07T07:40:49.492Z,11.66
2018-11-07T07:41:49.482Z,11.98
2018-11-07T07:42:49.475Z,12.57
2018-11-07T07:43:49.463Z,13.16
2018-11-07T07:44:49.452Z,13.48
2018-11-07T07:45:49.555Z,13.82
2018-11-07T07:46:49.433Z,13.97
2018-11-07T07:47:49.421Z,14.34
2018-11-07T07:48:49.405Z,14.31
2018-11-07T07:49:49.395Z,14.37
2018-11-07T07:50:49.387Z,14.38
2018-11-07T07:51:49.370Z,13.96
2018-11-07T07:52:49.361Z,13.71
2018-11-07T07:53:49.347Z,13.53
2018-11-07T07:54:49.337Z,13.52
2018-11-07T07:55:49.325Z,13.63
2018-11-07T07:56:49.313Z,13.56
2018-11-07T07:57:49.360Z,13.72
2018-11-07T07:58:49.290Z,14.08
2018-11-07T07:59:49.289Z,14.44
2018-11-07T08:00:49.268Z,14.85
2018-11-07T08:01:49.256Z,15.37
2018-11-07T08:02:49.251Z,15.72
2018-11-07T08:03:49.239Z,15.87
2018-11-07T08:04:49.232Z,16.21
2018-11-07T08:05:49.211Z,16.51
2018-11-07T08:06:49.205Z,16.92
2018-11-07T08:07:49.191Z,17.20
2018-11-07T08:08:49.184Z,17.35
2018-11-07T08:09:49.174Z,17.38
2018-11-07T08:10:49.158Z,17.20
2018-11-07T08:11:49.144Z,17.37
2018-11-07T08:12:49.133Z,17.35
2018-11-07T08:13:49.160Z,17.24
2018-11-07T08:14:49.110Z,17.47
2018-11-07T08:15:49.096Z,17.78
2018-11-07T08:16:49.091Z,17.70
2018-11-07T08:17:49.077Z,17.43
2018-11-07T08:18:49.064Z,17.87
2018-11-07T08:19:49.055Z,18.11
2018-11-07T08:20:49.045Z,18.51
2018-11-07T08:21:49.037Z,18.81
2018-11-07T08:22:49.025Z,19.06
2018-11-07T08:23:50.209Z,19.14
2018-11-07T08:24:48.994Z,19.46
2018-11-07T08:25:48.986Z,19.51
2018-11-07T08:26:48.975Z,19.66
2018-11-07T08:27:48.965Z,19.89
2018-11-07T08:28:48.952Z,19.70
2018-11-07T08:29:50.145Z,19.89
2018-11-07T08:30:48.953Z,20.22
2018-11-07T08:31:48.922Z,20.51
2018-11-07T08:32:48.904Z,20.84
2018-11-07T08:33:48.892Z,21.04
2018-11-07T08:34:48.880Z,20.32
2018-11-07T08:35:48.874Z,20.47
2018-11-07T08:36:48.860Z,20.69
2018-11-07T08:37:48.848Z,21.03
2018-11-07T08:38:48.835Z,21.35
2018-11-07T08:39:48.831Z,21.67
2018-11-07T08:40:48.822Z,21.93
2018-11-07T08:41:48.807Z,22.17
2018-11-07T08:42:48.792Z,22.26
2018-11-07T08:43:48.781Z,21.95
2018-11-07T08:44:48.769Z,22.14
2018-11-07T08:45:48.763Z,22.39
2018-11-07T08:46:48.752Z,22.48
2018-11-07T08:47:48.737Z,22.66
2018-11-07T08:48:48.725Z,22.62
2018-11-07T08:49:48.719Z,22.37
2018-11-07T08:50:48.702Z,21.85
2018-11-07T08:51:48.694Z,21.67
2018-11-07T08:52:48.680Z,21.73
2018-11-07T08:53:48.669Z,21.55
2018-11-07T08:54:48.705Z,20.70
2018-11-07T08:55:48.647Z,20.33
2018-11-07T08:56:48.633Z,20.70
2018-11-07T08:57:48.624Z,21.23
2018-11-07T08:58:48.612Z,21.20
2018-11-07T08:59:48.599Z,21.55
2018-11-07T09:00:48.595Z,21.69
2018-11-07T09:01:48.578Z,22.17
2018-11-07T09:02:48.565Z,22.50
2018-11-07T09:03:48.555Z,22.62
2018-11-07T09:04:48.543Z,22.89
2018-11-07T09:05:48.536Z,23.25
2018-11-07T09:06:48.523Z,23.40
2018-11-07T09:07:48.508Z,23.41
2018-11-07T09:08:48.503Z,23.48
2018-11-07T09:09:48.486Z,23.65
2018-11-07T09:10:48.474Z,23.50
2018-11-07T09:11:48.561Z,23.80
2018-11-07T09:12:48.456Z,23.95
2018-11-07T09:13:48.443Z,24.08
2018-11-07T09:14:48.430Z,24.19
2018-11-07T09:15:48.417Z,24.26
2018-11-07T09:16:48.406Z,24.48
2018-11-07T09:17:48.395Z,24.41
2018-11-07T09:18:48.383Z,24.44
2018-11-07T09:19:48.432Z,24.43
2018-11-07T09:20:48.360Z,24.59
2018-11-07T09:21:48.350Z,24.44
2018-11-07T09:22:48.344Z,24.40
2018-11-07T09:23:48.328Z,24.53
2018-11-07T09:24:48.318Z,24.58
2018-11-07T09:25:48.304Z,24.63
2018-11-07T09:26:48.294Z,24.84
2018-11-07T09:27:48.285Z,24.95
2018-11-07T09:28:48.270Z,25.15
2018-11-07T09:29:48.259Z,25.11
2018-11-07T09:30:48.250Z,24.26
2018-11-07T09:31:48.238Z,23.84
2018-11-07T09:32:48.235Z,22.73
2018-11-07T09:33:48.217Z,22.11
2018-11-07T09:34:48.205Z,22.40
2018-11-07T09:35:48.195Z,22.70
2018-11-07T09:36:48.185Z,23.06
2018-11-07T09:37:48.173Z,23.40
2018-11-07T09:38:48.162Z,23.72
2018-11-07T09:39:48.188Z,24.06
2018-11-07T09:40:48.138Z,24.16
2018-11-07T09:41:48.129Z,23.66
2018-11-07T09:42:48.119Z,23.36
2018-11-07T09:43:48.107Z,22.30
2018-11-07T09:44:48.093Z,22.37
2018-11-07T09:45:48.085Z,21.92
2018-11-07T09:46:48.071Z,22.02
2018-11-07T09:47:48.062Z,22.52
2018-11-07T09:48:48.051Z,22.40
2018-11-07T09:49:48.040Z,22.00
2018-11-07T09:50:48.024Z,21.99
2018-11-07T09:51:48.013Z,22.47
2018-11-07T09:52:48.005Z,22.99
2018-11-07T09:53:48.021Z,23.62
2018-11-07T09:54:47.980Z,24.06
2018-11-07T09:55:47.967Z,24.37
2018-11-07T09:56:47.977Z,24.33
2018-11-07T09:57:47.953Z,23.38
2018-11-07T09:58:47.935Z,22.96
2018-11-07T09:59:47.959Z,23.29
2018-11-07T10:00:47.915Z,23.55
2018-11-07T10:01:47.898Z,24.07
2018-11-07T10:02:47.888Z,23.60
2018-11-07T10:03:47.891Z,22.21
2018-11-07T10:04:47.864Z,21.12
2018-11-07T10:05:47.853Z,20.63
2018-11-07T10:06:47.847Z,20.18
2018-11-07T10:07:47.830Z,20.05
2018-11-07T10:08:47.820Z,19.66
2018-11-07T10:09:47.810Z,19.66
2018-11-07T10:10:47.797Z,19.94
2018-11-07T10:11:47.789Z,19.59
2018-11-07T10:12:47.782Z,19.90
2018-11-07T10:13:47.761Z,19.90
2018-11-07T10:14:47.757Z,19.86
2018-11-07T10:15:47.746Z,20.02
2018-11-07T10:16:47.735Z,20.09
2018-11-07T10:17:47.721Z,20.45
2018-11-07T10:18:47.714Z,20.96
2018-11-07T10:19:47.696Z,20.92
2018-11-07T10:20:47.685Z,20.81
2018-11-07T10:21:47.672Z,20.64
2018-11-07T10:22:47.664Z,20.42
2018-11-07T10:23:47.652Z,20.32
2018-11-07T10:24:47.637Z,20.19
2018-11-07T10:25:47.636Z,19.93
2018-11-07T10:26:47.677Z,19.93
2018-11-07T10:27:47.979Z,19.90
2018-11-07T10:28:47.863Z,19.63
2018-11-07T10:29:47.821Z,19.59
2018-11-07T10:30:47.575Z,19.40
2018-11-07T10:31:47.559Z,19.29
2018-11-07T10:32:47.548Z,19.55
2018-11-07T10:33:47.540Z,19.75
2018-11-07T10:34:47.529Z,19.92
2018-11-07T10:35:47.515Z,19.99
2018-11-07T10:36:47.505Z,19.61
2018-11-07T10:37:47.597Z,19.71
2018-11-07T10:38:47.586Z,19.90
2018-11-07T10:39:47.561Z,19.96
2018-11-07T10:40:47.461Z,20.34
2018-11-07T10:41:47.449Z,20.26
2018-11-07T10:42:47.437Z,20.32
2018-11-07T10:43:47.458Z,20.36
2018-11-07T10:44:47.424Z,20.62
2018-11-07T10:45:47.405Z,21.00
2018-11-07T10:46:47.394Z,21.51
2018-11-07T10:47:47.384Z,21.93
2018-11-07T10:48:47.375Z,22.51
2018-11-07T10:49:47.364Z,22.93
2018-11-07T10:50:47.356Z,23.13
2018-11-07T10:51:47.452Z,23.35
2018-11-07T10:52:47.326Z,23.04
2018-11-07T10:53:47.317Z,22.66
2018-11-07T10:54:47.303Z,22.92
2018-11-07T10:55:47.336Z,23.50
2018-11-07T10:56:47.286Z,24.15
2018-11-07T10:57:47.272Z,24.60
2018-11-07T10:58:47.261Z,24.92
2018-11-07T10:59:47.248Z,25.03
2018-11-07T11:00:47.236Z,25.42
2018-11-07T11:01:47.225Z,25.36
2018-11-07T11:02:47.225Z,24.11
2018-11-07T11:03:47.205Z,22.91
2018-11-07T11:04:47.195Z,21.90
2018-11-07T11:05:47.193Z,21.99
2018-11-07T11:06:47.172Z,21.63
2018-11-07T11:07:47.159Z,21.50
2018-11-07T11:08:47.151Z,21.97
2018-11-07T11:09:47.145Z,22.50
2018-11-07T11:10:47.127Z,22.86
2018-11-07T11:11:47.119Z,23.45
2018-11-07T11:12:47.106Z,23.60
2018-11-07T11:13:47.095Z,23.54
2018-11-07T11:14:47.081Z,23.47
2018-11-07T11:15:47.071Z,23.55
2018-11-07T11:16:47.145Z,23.21
2018-11-07T11:17:47.051Z,22.89
2018-11-07T11:18:47.038Z,22.77
2018-11-07T11:19:47.027Z,22.52
2018-11-07T11:20:47.019Z,22.15
2018-11-07T11:21:47.004Z,22.51
2018-11-07T11:22:46.991Z,22.47
2018-11-07T11:23:46.986Z,22.14
2018-11-07T11:24:46.973Z,21.93
2018-11-07T11:25:46.985Z,22.02
2018-11-07T11:26:46.953Z,22.20
2018-11-07T11:27:46.946Z,22.42
2018-11-07T11:28:46.932Z,22.48
2018-11-07T11:29:46.918Z,22.33
2018-11-07T11:30:46.905Z,22.30
2018-11-07T11:31:46.899Z,22.47
2018-11-07T11:32:46.885Z,22.80
2018-11-07T11:33:46.934Z,23.32
2018-11-07T11:34:46.988Z,23.60
2018-11-07T11:35:46.854Z,23.66
2018-11-07T11:36:46.843Z,23.03
2018-11-07T11:37:46.837Z,23.04
2018-11-07T11:38:46.833Z,23.28
2018-11-07T11:39:46.814Z,23.55
2018-11-07T11:40:46.797Z,23.88
2018-11-07T11:41:46.793Z,24.01
2018-11-07T11:42:46.779Z,23.50
2018-11-07T11:43:46.766Z,23.36
2018-11-07T11:44:46.755Z,23.21
2018-11-07T11:45:46.741Z,23.28
2018-11-07T11:46:46.733Z,23.44
2018-11-07T11:47:46.718Z,23.60
2018-11-07T11:48:46.708Z,24.06
2018-11-07T11:49:46.695Z,24.47
2018-11-07T11:50:46.685Z,24.98
2018-11-07T11:51:46.675Z,25.02
2018-11-07T11:52:46.664Z,24.98
2018-11-07T11:53:46.653Z,25.02
2018-11-07T11:54:46.644Z,24.92
2018-11-07T11:55:46.632Z,24.70
2018-11-07T11:56:46.620Z,23.87
2018-11-07T11:57:46.610Z,23.17
2018-11-07T11:58:46.671Z,23.15
2018-11-07T11:59:46.811Z,23.68
2018-11-07T12:00:46.575Z,24.15
2018-11-07T12:01:46.568Z,24.55
2018-11-07T12:02:46.561Z,24.78
2018-11-07T12:03:46.543Z,24.93
2018-11-07T12:04:46.532Z,24.59
2018-11-07T12:05:46.523Z,23.88
2018-11-07T12:06:46.510Z,23.78
2018-11-07T12:07:46.501Z,24.07
2018-11-07T12:08:46.517Z,24.41
2018-11-07T12:09:46.481Z,24.73
2018-11-07T12:10:46.465Z,25.08
2018-11-07T12:11:46.486Z,25.35
2018-11-07T12:12:46.445Z,25.53
2018-11-07T12:13:46.439Z,25.73
2018-11-07T12:14:46.427Z,25.56
2018-11-07T12:15:46.419Z,25.59
2018-11-07T12:16:46.425Z,25.66
2018-11-07T12:17:46.555Z,25.85
2018-11-07T12:18:46.434Z,25.90
2018-11-07T12:19:46.369Z,25.96
2018-11-07T12:20:46.374Z,25.78
2018-11-07T12:21:46.376Z,25.64
2018-11-07T12:22:46.376Z,25.68
2018-11-07T12:23:46.322Z,25.58
2018-11-07T12:24:46.311Z,25.42
2018-11-07T12:25:46.305Z,25.27
2018-11-07T12:26:46.361Z,25.22
2018-11-07T12:27:46.278Z,24.96
2018-11-07T12:28:46.267Z,24.92
2018-11-07T12:29:46.256Z,24.93
2018-11-07T12:30:46.251Z,24.92
2018-11-07T12:31:46.233Z,24.78
2018-11-07T12:32:46.223Z,24.63
2018-11-07T12:33:46.216Z,24.68
2018-11-07T12:34:46.209Z,24.83
2018-11-07T12:35:46.193Z,24.80
2018-11-07T12:36:46.178Z,24.68
2018-11-07T12:37:46.165Z,24.56
2018-11-07T12:38:46.156Z,24.45
2018-11-07T12:39:46.144Z,24.07
2018-11-07T12:40:46.134Z,24.10
2018-11-07T12:41:46.121Z,24.19
2018-11-07T12:42:46.176Z,24.28
2018-11-07T12:43:46.099Z,24.06
2018-11-07T12:44:46.090Z,24.13
2018-11-07T12:45:46.077Z,24.04
2018-11-07T12:46:46.065Z,23.32
2018-11-07T12:47:46.060Z,22.51
2018-11-07T12:48:46.050Z,22.02
2018-11-07T12:49:46.111Z,21.37
2018-11-07T12:50:46.026Z,20.97
2018-11-07T12:51:46.013Z,20.64
2018-11-07T12:52:46.007Z,20.88
2018-11-07T12:53:45.989Z,21.12